sensor_id;sensor_type;location;lat;lon;timestamp;temperature;humidity
5743;DHT22;2896;53.500;10.020;2023-04-03T00:01:25;1.50;1.00
5743;DHT22;2896;53.500;10.020;2023-04-03T00:03:52;1.40;1.00
5743;DHT22;2896;53.500;10.020;2023-04-03T00:06:18;1.50;1.00
5743;DHT22;2896;53.500;10.020;2023-04-03T00:08:47;1.50;1.00
5743;DHT22;2896;53.500;10.020;2023-04-03T00:11:14;1.40;1.00
5743;DHT22;2896;53.500;10.020;2023-04-03T00:13:40;1.40;1.00
5743;DHT22;2896;53.500;10.020;2023-04-03T00:16:08;1.40;1.00
5743;DHT22;2896;53.500;10.020;2023-04-03T00:18:36;1.40;1.00
5743;DHT22;2896;53.500;10.020;2023-04-03T00:21:04;1.60;1.00
5743;DHT22;2896;53.500;10.020;2023-04-03T00:23:31;1.30;1.00
5743;DHT22;2896;53.500;10.020;2023-04-03T00:25:59;1.20;1.00
5743;DHT22;2896;53.500;10.020;2023-04-03T00:28:25;1.10;1.00
5743;DHT22;2896;53.500;10.020;2023-04-03T00:30:52;1.20;1.00
5743;DHT22;2896;53.500;10.020;2023-04-03T00:33:19;1.20;1.00
5743;DHT22;2896;53.500;10.020;2023-04-03T00:35:47;1.20;1.00
5743;DHT22;2896;53.500;10.020;2023-04-03T00:38:13;1.20;1.00
5743;DHT22;2896;53.500;10.020;2023-04-03T00:40:42;1.10;1.00
5743;DHT22;2896;53.500;10.020;2023-04-03T00:43:13;1.20;1.00
5743;DHT22;2896;53.500;10.020;2023-04-03T00:45:42;1.20;1.00
5743;DHT22;2896;53.500;10.020;2023-04-03T00:48:12;1.20;1.00
5743;DHT22;2896;53.500;10.020;2023-04-03T00:50:41;1.20;1.00
5743;DHT22;2896;53.500;10.020;2023-04-03T00:53:12;1.30;1.00
5743;DHT22;2896;53.500;10.020;2023-04-03T00:55:41;1.20;1.00
5743;DHT22;2896;53.500;10.020;2023-04-03T00:58:10;1.20;1.00
5743;DHT22;2896;53.500;10.020;2023-04-03T01:00:40;1.20;1.00
5743;DHT22;2896;53.500;10.020;2023-04-03T01:03:08;1.10;1.00
5743;DHT22;2896;53.500;10.020;2023-04-03T01:05:35;1.00;1.00
5743;DHT22;2896;53.500;10.020;2023-04-03T01:08:02;1.00;1.00
5743;DHT22;2896;53.500;10.020;2023-04-03T01:10:28;1.10;1.00
5743;DHT22;2896;53.500;10.020;2023-04-03T01:12:55;1.20;1.00
5743;DHT22;2896;53.500;10.020;2023-04-03T01:15:26;1.20;1.00
5743;DHT22;2896;53.500;10.020;2023-04-03T01:17:56;1.30;1.00
5743;DHT22;2896;53.500;10.020;2023-04-03T01:20:57;1.30;1.00
5743;DHT22;2896;53.500;10.020;2023-04-03T01:23:38;1.40;1.00
5743;DHT22;2896;53.500;10.020;2023-04-03T01:26:07;1.30;1.00
5743;DHT22;2896;53.500;10.020;2023-04-03T01:28:36;1.30;1.00
5743;DHT22;2896;53.500;10.020;2023-04-03T01:31:10;1.40;1.00
5743;DHT22;2896;53.500;10.020;2023-04-03T01:33:40;1.30;1.00
5743;DHT22;2896;53.500;10.020;2023-04-03T01:36:07;1.30;1.00
5743;DHT22;2896;53.500;10.020;2023-04-03T01:38:34;1.10;1.00
5743;DHT22;2896;53.500;10.020;2023-04-03T01:41:01;1.00;1.00
5743;DHT22;2896;53.500;10.020;2023-04-03T01:43:27;0.90;1.00
5743;DHT22;2896;53.500;10.020;2023-04-03T01:45:54;0.80;1.00
5743;DHT22;2896;53.500;10.020;2023-04-03T01:48:21;1.00;1.00
5743;DHT22;2896;53.500;10.020;2023-04-03T01:50:49;0.70;1.00
5743;DHT22;2896;53.500;10.020;2023-04-03T01:53:16;0.80;1.00
5743;DHT22;2896;53.500;10.020;2023-04-03T01:55:42;0.70;1.00
5743;DHT22;2896;53.500;10.020;2023-04-03T01:58:09;0.70;1.00
5743;DHT22;2896;53.500;10.020;2023-04-03T02:00:35;0.70;1.00
5743;DHT22;2896;53.500;10.020;2023-04-03T02:03:02;0.70;1.00
5743;DHT22;2896;53.500;10.020;2023-04-03T02:05:29;0.70;1.00
5743;DHT22;2896;53.500;10.020;2023-04-03T02:07:57;0.70;1.00
5743;DHT22;2896;53.500;10.020;2023-04-03T02:10:25;0.80;1.00
5743;DHT22;2896;53.500;10.020;2023-04-03T02:12:51;0.70;1.00
5743;DHT22;2896;53.500;10.020;2023-04-03T02:15:18;0.70;1.00
5743;DHT22;2896;53.500;10.020;2023-04-03T02:17:45;0.70;1.00
5743;DHT22;2896;53.500;10.020;2023-04-03T02:20:12;0.80;1.00
5743;DHT22;2896;53.500;10.020;2023-04-03T02:22:38;0.70;1.00
5743;DHT22;2896;53.500;10.020;2023-04-03T02:25:07;0.80;1.00
5743;DHT22;2896;53.500;10.020;2023-04-03T02:27:35;0.90;1.00
5743;DHT22;2896;53.500;10.020;2023-04-03T02:30:01;0.90;1.00
5743;DHT22;2896;53.500;10.020;2023-04-03T02:32:28;0.70;1.00
5743;DHT22;2896;53.500;10.020;2023-04-03T02:34:54;0.60;1.00
5743;DHT22;2896;53.500;10.020;2023-04-03T02:37:21;0.60;1.00
5743;DHT22;2896;53.500;10.020;2023-04-03T02:39:48;0.40;1.00
5743;DHT22;2896;53.500;10.020;2023-04-03T02:42:16;0.30;1.00
5743;DHT22;2896;53.500;10.020;2023-04-03T02:44:42;0.30;1.00
5743;DHT22;2896;53.500;10.020;2023-04-03T02:47:09;0.30;1.00
5743;DHT22;2896;53.500;10.020;2023-04-03T02:49:36;0.40;1.00
5743;DHT22;2896;53.500;10.020;2023-04-03T02:52:03;0.20;1.00
5743;DHT22;2896;53.500;10.020;2023-04-03T02:54:30;0.10;1.00
5743;DHT22;2896;53.500;10.020;2023-04-03T02:56:57;0.00;1.00
5743;DHT22;2896;53.500;10.020;2023-04-03T02:59:25;-0.10;1.00
5743;DHT22;2896;53.500;10.020;2023-04-03T03:01:52;-0.20;1.00
5743;DHT22;2896;53.500;10.020;2023-04-03T03:04:19;-0.20;1.00
5743;DHT22;2896;53.500;10.020;2023-04-03T03:06:45;-0.30;1.00
5743;DHT22;2896;53.500;10.020;2023-04-03T03:09:12;-0.20;1.00
5743;DHT22;2896;53.500;10.020;2023-04-03T03:11:40;-0.30;1.00
5743;DHT22;2896;53.500;10.020;2023-04-03T03:14:06;-0.40;1.00
5743;DHT22;2896;53.500;10.020;2023-04-03T03:16:34;-0.50;1.00
5743;DHT22;2896;53.500;10.020;2023-04-03T03:19:01;-0.60;1.00
5743;DHT22;2896;53.500;10.020;2023-04-03T03:21:28;-0.60;1.00
5743;DHT22;2896;53.500;10.020;2023-04-03T03:23:54;-0.70;1.00
5743;DHT22;2896;53.500;10.020;2023-04-03T03:26:21;-0.70;1.00
5743;DHT22;2896;53.500;10.020;2023-04-03T03:28:48;-0.70;1.00
5743;DHT22;2896;53.500;10.020;2023-04-03T03:31:14;-0.80;1.00
5743;DHT22;2896;53.500;10.020;2023-04-03T03:33:42;-0.80;1.00
5743;DHT22;2896;53.500;10.020;2023-04-03T03:36:09;-0.90;1.00
5743;DHT22;2896;53.500;10.020;2023-04-03T03:38:35;-0.80;17.90
5743;DHT22;2896;53.500;10.020;2023-04-03T03:41:02;-0.90;29.90
5743;DHT22;2896;53.500;10.020;2023-04-03T03:43:29;-0.90;36.70
5743;DHT22;2896;53.500;10.020;2023-04-03T03:45:55;-0.90;47.00
5743;DHT22;2896;53.500;10.020;2023-04-03T03:48:23;-0.90;77.30
5743;DHT22;2896;53.500;10.020;2023-04-03T03:50:51;-1.00;88.70
5743;DHT22;2896;53.500;10.020;2023-04-03T03:53:18;-0.90;99.90
5743;DHT22;2896;53.500;10.020;2023-04-03T03:55:45;-0.90;99.90
5743;DHT22;2896;53.500;10.020;2023-04-03T03:58:11;-0.90;99.90
5743;DHT22;2896;53.500;10.020;2023-04-03T04:00:38;-1.00;99.90
5743;DHT22;2896;53.500;10.020;2023-04-03T04:03:05;-1.00;99.90
5743;DHT22;2896;53.500;10.020;2023-04-03T04:05:32;-0.90;99.90
5743;DHT22;2896;53.500;10.020;2023-04-03T04:08:00;-0.70;99.90
5743;DHT22;2896;53.500;10.020;2023-04-03T04:10:26;-1.00;99.90
5743;DHT22;2896;53.500;10.020;2023-04-03T04:12:53;-1.00;99.90
5743;DHT22;2896;53.500;10.020;2023-04-03T04:15:19;-1.10;99.90
5743;DHT22;2896;53.500;10.020;2023-04-03T04:17:47;-1.10;99.90
5743;DHT22;2896;53.500;10.020;2023-04-03T04:20:14;-1.10;99.90
5743;DHT22;2896;53.500;10.020;2023-04-03T04:22:40;-1.10;99.90
5743;DHT22;2896;53.500;10.020;2023-04-03T04:25:08;-1.10;99.90
5743;DHT22;2896;53.500;10.020;2023-04-03T04:27:35;-1.00;1.00
5743;DHT22;2896;53.500;10.020;2023-04-03T04:30:02;-1.10;1.00
5743;DHT22;2896;53.500;10.020;2023-04-03T04:32:29;-1.10;99.90
5743;DHT22;2896;53.500;10.020;2023-04-03T04:34:56;-1.10;99.90
5743;DHT22;2896;53.500;10.020;2023-04-03T04:37:23;-1.10;99.90
5743;DHT22;2896;53.500;10.020;2023-04-03T04:39:49;-1.10;99.90
5743;DHT22;2896;53.500;10.020;2023-04-03T04:42:17;-1.10;1.00
5743;DHT22;2896;53.500;10.020;2023-04-03T04:44:44;-1.20;1.00
5743;DHT22;2896;53.500;10.020;2023-04-03T04:47:10;-1.10;1.00
5743;DHT22;2896;53.500;10.020;2023-04-03T04:49:37;-1.20;1.00
5743;DHT22;2896;53.500;10.020;2023-04-03T04:52:04;-1.10;1.00
5743;DHT22;2896;53.500;10.020;2023-04-03T04:54:31;-1.10;1.00
5743;DHT22;2896;53.500;10.020;2023-04-03T04:56:57;-1.20;1.00
5743;DHT22;2896;53.500;10.020;2023-04-03T04:59:25;-1.20;99.90
5743;DHT22;2896;53.500;10.020;2023-04-03T05:01:52;-1.20;99.90
5743;DHT22;2896;53.500;10.020;2023-04-03T05:04:18;-1.00;99.90
5743;DHT22;2896;53.500;10.020;2023-04-03T05:06:45;-1.30;99.90
5743;DHT22;2896;53.500;10.020;2023-04-03T05:09:12;-1.10;99.90
5743;DHT22;2896;53.500;10.020;2023-04-03T05:11:38;-1.20;99.90
5743;DHT22;2896;53.500;10.020;2023-04-03T05:14:05;-1.10;99.90
5743;DHT22;2896;53.500;10.020;2023-04-03T05:16:33;-1.10;99.90
5743;DHT22;2896;53.500;10.020;2023-04-03T05:19:00;-1.20;99.90
5743;DHT22;2896;53.500;10.020;2023-04-03T05:21:27;-1.10;99.90
5743;DHT22;2896;53.500;10.020;2023-04-03T05:23:57;-1.10;99.90
5743;DHT22;2896;53.500;10.020;2023-04-03T05:26:24;-1.10;99.90
5743;DHT22;2896;53.500;10.020;2023-04-03T05:28:51;-1.00;99.90
5743;DHT22;2896;53.500;10.020;2023-04-03T05:31:17;-1.00;99.90
5743;DHT22;2896;53.500;10.020;2023-04-03T05:33:45;-0.90;99.90
5743;DHT22;2896;53.500;10.020;2023-04-03T05:36:12;-0.90;99.90
5743;DHT22;2896;53.500;10.020;2023-04-03T05:38:40;-0.80;99.90
5743;DHT22;2896;53.500;10.020;2023-04-03T05:41:06;-0.80;99.90
5743;DHT22;2896;53.500;10.020;2023-04-03T05:43:33;-0.80;99.90
5743;DHT22;2896;53.500;10.020;2023-04-03T05:46:03;-0.50;99.90
5743;DHT22;2896;53.500;10.020;2023-04-03T05:48:29;-0.70;99.90
5743;DHT22;2896;53.500;10.020;2023-04-03T05:50:58;-0.70;99.90
5743;DHT22;2896;53.500;10.020;2023-04-03T05:53:27;-0.60;99.90
5743;DHT22;2896;53.500;10.020;2023-04-03T05:55:54;-0.40;99.90
5743;DHT22;2896;53.500;10.020;2023-04-03T05:58:21;-0.20;99.90
5743;DHT22;2896;53.500;10.020;2023-04-03T06:00:47;0.60;99.90
5743;DHT22;2896;53.500;10.020;2023-04-03T06:03:14;1.10;99.90
5743;DHT22;2896;53.500;10.020;2023-04-03T06:05:41;1.70;99.90
5743;DHT22;2896;53.500;10.020;2023-04-03T06:08:09;2.20;1.00
5743;DHT22;2896;53.500;10.020;2023-04-03T06:10:36;3.00;1.00
5743;DHT22;2896;53.500;10.020;2023-04-03T06:13:02;4.00;1.00
5743;DHT22;2896;53.500;10.020;2023-04-03T06:15:29;4.90;99.90
5743;DHT22;2896;53.500;10.020;2023-04-03T06:17:56;5.60;99.90
5743;DHT22;2896;53.500;10.020;2023-04-03T06:20:22;6.40;99.90
5743;DHT22;2896;53.500;10.020;2023-04-03T06:22:49;7.20;99.90
5743;DHT22;2896;53.500;10.020;2023-04-03T06:25:17;7.50;99.90
5743;DHT22;2896;53.500;10.020;2023-04-03T06:27:45;8.10;99.90
5743;DHT22;2896;53.500;10.020;2023-04-03T06:30:12;8.50;99.90
5743;DHT22;2896;53.500;10.020;2023-04-03T06:32:38;9.00;99.90
5743;DHT22;2896;53.500;10.020;2023-04-03T06:35:06;8.80;99.90
5743;DHT22;2896;53.500;10.020;2023-04-03T06:37:33;8.30;99.90
5743;DHT22;2896;53.500;10.020;2023-04-03T06:40:00;8.20;99.90
5743;DHT22;2896;53.500;10.020;2023-04-03T06:42:29;8.20;99.90
5743;DHT22;2896;53.500;10.020;2023-04-03T06:44:56;8.30;99.90
5743;DHT22;2896;53.500;10.020;2023-04-03T06:47:22;8.30;99.90
5743;DHT22;2896;53.500;10.020;2023-04-03T06:49:49;8.00;99.90
5743;DHT22;2896;53.500;10.020;2023-04-03T06:52:16;7.90;99.90
5743;DHT22;2896;53.500;10.020;2023-04-03T06:54:42;7.90;99.90
5743;DHT22;2896;53.500;10.020;2023-04-03T06:57:09;7.70;99.90
5743;DHT22;2896;53.500;10.020;2023-04-03T06:59:37;7.30;99.90
5743;DHT22;2896;53.500;10.020;2023-04-03T07:02:04;7.10;99.90
5743;DHT22;2896;53.500;10.020;2023-04-03T07:04:30;7.00;99.90
5743;DHT22;2896;53.500;10.020;2023-04-03T07:06:57;6.80;99.90
5743;DHT22;2896;53.500;10.020;2023-04-03T07:09:23;6.40;99.90
5743;DHT22;2896;53.500;10.020;2023-04-03T07:11:50;6.10;99.90
5743;DHT22;2896;53.500;10.020;2023-04-03T07:14:17;6.00;99.90
5743;DHT22;2896;53.500;10.020;2023-04-03T07:16:45;6.00;99.90
5743;DHT22;2896;53.500;10.020;2023-04-03T07:19:11;5.90;99.90
5743;DHT22;2896;53.500;10.020;2023-04-03T07:21:38;6.10;99.90
5743;DHT22;2896;53.500;10.020;2023-04-03T07:24:06;6.30;99.90
5743;DHT22;2896;53.500;10.020;2023-04-03T07:26:32;6.10;99.90
5743;DHT22;2896;53.500;10.020;2023-04-03T07:28:59;5.70;99.90
5743;DHT22;2896;53.500;10.020;2023-04-03T07:31:26;5.60;99.90
5743;DHT22;2896;53.500;10.020;2023-04-03T07:33:54;5.70;99.90
5743;DHT22;2896;53.500;10.020;2023-04-03T07:36:21;5.70;99.90
5743;DHT22;2896;53.500;10.020;2023-04-03T07:38:49;6.00;99.90
5743;DHT22;2896;53.500;10.020;2023-04-03T07:41:17;5.90;99.90
5743;DHT22;2896;53.500;10.020;2023-04-03T07:43:44;5.90;99.90
5743;DHT22;2896;53.500;10.020;2023-04-03T07:46:11;6.20;99.90
5743;DHT22;2896;53.500;10.020;2023-04-03T07:48:38;6.50;99.90
5743;DHT22;2896;53.500;10.020;2023-04-03T07:51:07;6.90;99.90
5743;DHT22;2896;53.500;10.020;2023-04-03T07:53:33;6.70;99.90
5743;DHT22;2896;53.500;10.020;2023-04-03T07:56:00;7.00;99.90
5743;DHT22;2896;53.500;10.020;2023-04-03T07:58:28;6.70;99.90
5743;DHT22;2896;53.500;10.020;2023-04-03T08:00:55;8.70;99.90
5743;DHT22;2896;53.500;10.020;2023-04-03T08:03:22;6.40;99.90
5743;DHT22;2896;53.500;10.020;2023-04-03T08:05:49;6.50;99.90
5743;DHT22;2896;53.500;10.020;2023-04-03T08:08:20;6.80;99.90
5743;DHT22;2896;53.500;10.020;2023-04-03T08:10:49;7.00;99.90
5743;DHT22;2896;53.500;10.020;2023-04-03T08:13:16;7.40;99.90
5743;DHT22;2896;53.500;10.020;2023-04-03T08:15:42;7.50;99.90
5743;DHT22;2896;53.500;10.020;2023-04-03T08:18:10;8.00;99.90
5743;DHT22;2896;53.500;10.020;2023-04-03T08:20:38;7.20;99.90
5743;DHT22;2896;53.500;10.020;2023-04-03T08:23:05;7.50;99.90
5743;DHT22;2896;53.500;10.020;2023-04-03T08:25:33;7.70;99.90
5743;DHT22;2896;53.500;10.020;2023-04-03T08:28:00;7.90;99.90
5743;DHT22;2896;53.500;10.020;2023-04-03T08:30:27;8.20;99.90
5743;DHT22;2896;53.500;10.020;2023-04-03T08:32:54;8.00;99.90
5743;DHT22;2896;53.500;10.020;2023-04-03T08:35:20;7.60;99.90
5743;DHT22;2896;53.500;10.020;2023-04-03T08:37:47;8.20;99.90
5743;DHT22;2896;53.500;10.020;2023-04-03T08:40:15;8.40;99.90
5743;DHT22;2896;53.500;10.020;2023-04-03T08:42:51;8.00;99.90
5743;DHT22;2896;53.500;10.020;2023-04-03T08:45:25;7.70;99.90
5743;DHT22;2896;53.500;10.020;2023-04-03T08:47:56;7.50;99.90
5743;DHT22;2896;53.500;10.020;2023-04-03T08:50:30;7.60;99.90
5743;DHT22;2896;53.500;10.020;2023-04-03T08:52:59;7.90;99.90
5743;DHT22;2896;53.500;10.020;2023-04-03T08:55:28;8.30;99.90
5743;DHT22;2896;53.500;10.020;2023-04-03T08:58:01;7.80;99.90
5743;DHT22;2896;53.500;10.020;2023-04-03T09:00:32;8.20;99.90
5743;DHT22;2896;53.500;10.020;2023-04-03T09:03:01;8.40;99.90
5743;DHT22;2896;53.500;10.020;2023-04-03T09:05:35;9.50;99.90
5743;DHT22;2896;53.500;10.020;2023-04-03T09:08:12;8.20;99.90
5743;DHT22;2896;53.500;10.020;2023-04-03T09:10:41;8.50;99.90
5743;DHT22;2896;53.500;10.020;2023-04-03T09:13:17;8.80;99.90
5743;DHT22;2896;53.500;10.020;2023-04-03T09:15:46;8.40;99.90
5743;DHT22;2896;53.500;10.020;2023-04-03T09:18:16;8.20;99.90
5743;DHT22;2896;53.500;10.020;2023-04-03T09:20:49;8.00;99.90
5743;DHT22;2896;53.500;10.020;2023-04-03T09:23:24;8.20;99.90
5743;DHT22;2896;53.500;10.020;2023-04-03T09:25:55;8.00;99.90
5743;DHT22;2896;53.500;10.020;2023-04-03T09:28:25;8.10;99.90
5743;DHT22;2896;53.500;10.020;2023-04-03T09:30:53;8.40;99.90
5743;DHT22;2896;53.500;10.020;2023-04-03T09:33:20;8.30;99.90
5743;DHT22;2896;53.500;10.020;2023-04-03T09:35:48;8.60;99.90
5743;DHT22;2896;53.500;10.020;2023-04-03T09:38:19;8.10;99.90
5743;DHT22;2896;53.500;10.020;2023-04-03T09:40:47;8.40;99.90
5743;DHT22;2896;53.500;10.020;2023-04-03T09:43:27;8.90;99.90
5743;DHT22;2896;53.500;10.020;2023-04-03T09:45:55;9.00;99.90
5743;DHT22;2896;53.500;10.020;2023-04-03T09:48:24;8.80;99.90
5743;DHT22;2896;53.500;10.020;2023-04-03T09:51:08;9.20;99.90
5743;DHT22;2896;53.500;10.020;2023-04-03T09:53:39;9.10;99.90
5743;DHT22;2896;53.500;10.020;2023-04-03T09:56:20;8.50;99.90
5743;DHT22;2896;53.500;10.020;2023-04-03T09:58:50;8.40;99.90
5743;DHT22;2896;53.500;10.020;2023-04-03T10:01:23;8.50;99.90
5743;DHT22;2896;53.500;10.020;2023-04-03T10:04:07;8.90;99.90
5743;DHT22;2896;53.500;10.020;2023-04-03T10:06:36;8.80;99.90
5743;DHT22;2896;53.500;10.020;2023-04-03T10:09:10;8.80;99.90
5743;DHT22;2896;53.500;10.020;2023-04-03T10:11:57;8.70;99.90
5743;DHT22;2896;53.500;10.020;2023-04-03T10:14:25;8.60;99.90
5743;DHT22;2896;53.500;10.020;2023-04-03T10:16:59;8.90;99.90
5743;DHT22;2896;53.500;10.020;2023-04-03T10:19:39;8.80;99.90
5743;DHT22;2896;53.500;10.020;2023-04-03T10:22:16;8.80;99.90
5743;DHT22;2896;53.500;10.020;2023-04-03T10:24:50;9.30;99.90
5743;DHT22;2896;53.500;10.020;2023-04-03T10:27:22;9.30;99.90
5743;DHT22;2896;53.500;10.020;2023-04-03T10:29:57;9.50;99.90
5743;DHT22;2896;53.500;10.020;2023-04-03T10:32:41;9.30;99.90
5743;DHT22;2896;53.500;10.020;2023-04-03T10:35:16;9.50;99.90
5743;DHT22;2896;53.500;10.020;2023-04-03T10:37:53;9.70;99.90
5743;DHT22;2896;53.500;10.020;2023-04-03T10:40:29;9.70;99.90
5743;DHT22;2896;53.500;10.020;2023-04-03T10:43:03;10.00;99.90
5743;DHT22;2896;53.500;10.020;2023-04-03T10:45:53;10.20;99.90
5743;DHT22;2896;53.500;10.020;2023-04-03T10:51:20;10.30;99.90
5743;DHT22;2896;53.500;10.020;2023-04-03T10:53:55;10.70;99.90
5743;DHT22;2896;53.500;10.020;2023-04-03T10:56:30;10.70;99.90
5743;DHT22;2896;53.500;10.020;2023-04-03T10:59:02;10.70;99.90
5743;DHT22;2896;53.500;10.020;2023-04-03T11:01:38;11.00;99.90
5743;DHT22;2896;53.500;10.020;2023-04-03T11:04:06;10.60;99.90
5743;DHT22;2896;53.500;10.020;2023-04-03T11:06:36;10.30;99.90
5743;DHT22;2896;53.500;10.020;2023-04-03T11:09:09;10.30;99.90
5743;DHT22;2896;53.500;10.020;2023-04-03T11:11:39;11.30;99.90
5743;DHT22;2896;53.500;10.020;2023-04-03T11:14:11;11.40;99.90
5743;DHT22;2896;53.500;10.020;2023-04-03T11:16:46;11.00;99.90
5743;DHT22;2896;53.500;10.020;2023-04-03T11:19:17;11.60;99.90
5743;DHT22;2896;53.500;10.020;2023-04-03T11:21:54;12.00;99.90
5743;DHT22;2896;53.500;10.020;2023-04-03T11:24:25;11.40;99.90
5743;DHT22;2896;53.500;10.020;2023-04-03T11:26:54;11.70;99.90
5743;DHT22;2896;53.500;10.020;2023-04-03T11:29:24;11.80;99.90
5743;DHT22;2896;53.500;10.020;2023-04-03T11:32:06;11.70;99.90
5743;DHT22;2896;53.500;10.020;2023-04-03T11:34:38;12.80;99.90
5743;DHT22;2896;53.500;10.020;2023-04-03T11:37:15;10.70;99.90
5743;DHT22;2896;53.500;10.020;2023-04-03T11:39:51;11.10;99.90
5743;DHT22;2896;53.500;10.020;2023-04-03T11:42:28;10.00;99.90
5743;DHT22;2896;53.500;10.020;2023-04-03T11:45:15;11.20;99.90
5743;DHT22;2896;53.500;10.020;2023-04-03T11:47:48;11.80;99.90
5743;DHT22;2896;53.500;10.020;2023-04-03T11:50:38;12.50;99.90
5743;DHT22;2896;53.500;10.020;2023-04-03T11:53:27;11.90;99.90
5743;DHT22;2896;53.500;10.020;2023-04-03T11:55:57;10.50;99.90
5743;DHT22;2896;53.500;10.020;2023-04-03T11:58:27;10.10;99.90
5743;DHT22;2896;53.500;10.020;2023-04-03T12:00:57;10.40;99.90
5743;DHT22;2896;53.500;10.020;2023-04-03T12:07:00;9.80;99.90
5743;DHT22;2896;53.500;10.020;2023-04-03T12:09:33;9.60;99.90
5743;DHT22;2896;53.500;10.020;2023-04-03T12:14:53;10.30;99.90
5743;DHT22;2896;53.500;10.020;2023-04-03T12:17:23;10.80;99.90
5743;DHT22;2896;53.500;10.020;2023-04-03T12:19:52;11.70;99.90
5743;DHT22;2896;53.500;10.020;2023-04-03T12:22:21;12.40;99.90
5743;DHT22;2896;53.500;10.020;2023-04-03T12:24:49;11.70;99.90
5743;DHT22;2896;53.500;10.020;2023-04-03T12:27:28;11.30;99.90
5743;DHT22;2896;53.500;10.020;2023-04-03T12:30:11;12.10;99.90
5743;DHT22;2896;53.500;10.020;2023-04-03T12:32:48;12.20;99.90
5743;DHT22;2896;53.500;10.020;2023-04-03T12:35:23;11.40;99.90
5743;DHT22;2896;53.500;10.020;2023-04-03T12:38:15;11.30;99.90
5743;DHT22;2896;53.500;10.020;2023-04-03T12:40:50;10.10;99.90
5743;DHT22;2896;53.500;10.020;2023-04-03T12:43:26;9.60;99.90
5743;DHT22;2896;53.500;10.020;2023-04-03T12:46:02;10.00;99.90
5743;DHT22;2896;53.500;10.020;2023-04-03T12:48:31;10.40;99.90
5743;DHT22;2896;53.500;10.020;2023-04-03T12:50:58;10.90;99.90
5743;DHT22;2896;53.500;10.020;2023-04-03T12:53:28;10.50;99.90
5743;DHT22;2896;53.500;10.020;2023-04-03T12:56:19;10.20;99.90
5743;DHT22;2896;53.500;10.020;2023-04-03T12:58:50;9.80;99.90
5743;DHT22;2896;53.500;10.020;2023-04-03T13:01:20;9.50;99.90
5743;DHT22;2896;53.500;10.020;2023-04-03T13:03:50;9.30;99.90
5743;DHT22;2896;53.500;10.020;2023-04-03T13:06:19;9.40;99.90
5743;DHT22;2896;53.500;10.020;2023-04-03T13:08:52;9.50;99.90
5743;DHT22;2896;53.500;10.020;2023-04-03T13:11:21;9.30;99.90
5743;DHT22;2896;53.500;10.020;2023-04-03T13:13:56;10.50;99.90
5743;DHT22;2896;53.500;10.020;2023-04-03T13:16:22;11.60;99.90
5743;DHT22;2896;53.500;10.020;2023-04-03T13:18:51;12.30;99.90
5743;DHT22;2896;53.500;10.020;2023-04-03T13:21:20;12.50;99.90
5743;DHT22;2896;53.500;10.020;2023-04-03T13:23:50;10.70;99.90
5743;DHT22;2896;53.500;10.020;2023-04-03T13:26:20;10.10;99.90
5743;DHT22;2896;53.500;10.020;2023-04-03T13:28:47;10.60;99.90
5743;DHT22;2896;53.500;10.020;2023-04-03T13:31:20;11.60;99.90
5743;DHT22;2896;53.500;10.020;2023-04-03T13:33:58;12.00;99.90
5743;DHT22;2896;53.500;10.020;2023-04-03T13:36:34;12.70;99.90
5743;DHT22;2896;53.500;10.020;2023-04-03T13:39:05;11.70;99.90
5743;DHT22;2896;53.500;10.020;2023-04-03T13:41:34;10.90;99.90
5743;DHT22;2896;53.500;10.020;2023-04-03T13:44:25;10.70;99.90
5743;DHT22;2896;53.500;10.020;2023-04-03T13:46:54;10.10;99.90
5743;DHT22;2896;53.500;10.020;2023-04-03T13:49:29;10.60;99.90
5743;DHT22;2896;53.500;10.020;2023-04-03T13:51:57;10.90;99.90
5743;DHT22;2896;53.500;10.020;2023-04-03T13:54:25;11.20;99.90
5743;DHT22;2896;53.500;10.020;2023-04-03T13:56:58;10.90;99.90
5743;DHT22;2896;53.500;10.020;2023-04-03T13:59:28;11.50;99.90
5743;DHT22;2896;53.500;10.020;2023-04-03T14:02:10;11.50;99.90
5743;DHT22;2896;53.500;10.020;2023-04-03T14:04:47;11.50;99.90
5743;DHT22;2896;53.500;10.020;2023-04-03T14:07:16;13.00;99.90
5743;DHT22;2896;53.500;10.020;2023-04-03T14:09:45;11.20;99.90
5743;DHT22;2896;53.500;10.020;2023-04-03T14:12:17;10.40;99.90
5743;DHT22;2896;53.500;10.020;2023-04-03T14:14:45;10.50;99.90
5743;DHT22;2896;53.500;10.020;2023-04-03T14:17:15;10.40;99.90
5743;DHT22;2896;53.500;10.020;2023-04-03T14:19:43;10.00;99.90
5743;DHT22;2896;53.500;10.020;2023-04-03T14:22:14;10.60;99.90
5743;DHT22;2896;53.500;10.020;2023-04-03T14:24:41;10.30;99.90
5743;DHT22;2896;53.500;10.020;2023-04-03T14:27:17;10.70;99.90
5743;DHT22;2896;53.500;10.020;2023-04-03T14:29:45;12.00;99.90
5743;DHT22;2896;53.500;10.020;2023-04-03T14:32:13;11.90;99.90
5743;DHT22;2896;53.500;10.020;2023-04-03T14:34:40;11.60;99.90
5743;DHT22;2896;53.500;10.020;2023-04-03T14:37:10;11.30;99.90
5743;DHT22;2896;53.500;10.020;2023-04-03T14:39:37;11.40;99.90
5743;DHT22;2896;53.500;10.020;2023-04-03T14:42:04;11.60;99.90
5743;DHT22;2896;53.500;10.020;2023-04-03T14:44:33;11.50;99.90
5743;DHT22;2896;53.500;10.020;2023-04-03T14:47:00;11.70;99.90
5743;DHT22;2896;53.500;10.020;2023-04-03T14:49:28;11.40;99.90
5743;DHT22;2896;53.500;10.020;2023-04-03T14:51:55;11.00;99.90
5743;DHT22;2896;53.500;10.020;2023-04-03T14:54:23;11.20;99.90
5743;DHT22;2896;53.500;10.020;2023-04-03T14:56:53;10.70;99.90
5743;DHT22;2896;53.500;10.020;2023-04-03T14:59:21;10.60;99.90
5743;DHT22;2896;53.500;10.020;2023-04-03T15:01:49;10.10;99.90
5743;DHT22;2896;53.500;10.020;2023-04-03T15:04:17;10.20;99.90
5743;DHT22;2896;53.500;10.020;2023-04-03T15:06:45;10.80;99.90
5743;DHT22;2896;53.500;10.020;2023-04-03T15:09:19;13.00;99.90
5743;DHT22;2896;53.500;10.020;2023-04-03T15:11:46;10.10;99.90
5743;DHT22;2896;53.500;10.020;2023-04-03T15:14:13;10.00;99.90
5743;DHT22;2896;53.500;10.020;2023-04-03T15:16:40;10.00;99.90
5743;DHT22;2896;53.500;10.020;2023-04-03T15:19:08;10.50;99.90
5743;DHT22;2896;53.500;10.020;2023-04-03T15:21:35;10.40;99.90
5743;DHT22;2896;53.500;10.020;2023-04-03T15:24:01;9.90;99.90
5743;DHT22;2896;53.500;10.020;2023-04-03T15:26:29;10.20;99.90
5743;DHT22;2896;53.500;10.020;2023-04-03T15:28:55;9.90;99.90
5743;DHT22;2896;53.500;10.020;2023-04-03T15:31:22;10.10;99.90
5743;DHT22;2896;53.500;10.020;2023-04-03T15:33:49;10.40;99.90
5743;DHT22;2896;53.500;10.020;2023-04-03T15:36:17;11.20;99.90
5743;DHT22;2896;53.500;10.020;2023-04-03T15:38:43;10.20;99.90
5743;DHT22;2896;53.500;10.020;2023-04-03T15:41:10;10.60;99.90
5743;DHT22;2896;53.500;10.020;2023-04-03T15:43:36;10.20;99.90
5743;DHT22;2896;53.500;10.020;2023-04-03T15:46:04;9.90;99.90
5743;DHT22;2896;53.500;10.020;2023-04-03T15:48:31;9.50;99.90
5743;DHT22;2896;53.500;10.020;2023-04-03T15:50:57;9.50;99.90
5743;DHT22;2896;53.500;10.020;2023-04-03T15:53:25;9.50;99.90
5743;DHT22;2896;53.500;10.020;2023-04-03T15:55:52;8.80;99.90
5743;DHT22;2896;53.500;10.020;2023-04-03T15:58:19;9.00;99.90
5743;DHT22;2896;53.500;10.020;2023-04-03T16:00:45;11.30;99.90
5743;DHT22;2896;53.500;10.020;2023-04-03T16:03:15;9.10;99.90
5743;DHT22;2896;53.500;10.020;2023-04-03T16:05:42;9.40;99.90
5743;DHT22;2896;53.500;10.020;2023-04-03T16:08:09;9.80;99.90
5743;DHT22;2896;53.500;10.020;2023-04-03T16:10:37;9.70;99.90
5743;DHT22;2896;53.500;10.020;2023-04-03T16:13:04;9.70;99.90
5743;DHT22;2896;53.500;10.020;2023-04-03T16:15:32;9.30;99.90
5743;DHT22;2896;53.500;10.020;2023-04-03T16:17:59;9.50;99.90
5743;DHT22;2896;53.500;10.020;2023-04-03T16:20:26;9.50;99.90